sensor_id;sensor_type;location;lat;lon;timestamp;P1;durP1;ratioP1;P2;durP2;ratioP2
31734;SDS011;18313;48.518;9.124;2023-04-24T00:02:04;2.47;;;0.68;;
31734;SDS011;18313;48.518;9.124;2023-04-24T00:04:33;1.95;;;0.60;;
31734;SDS011;18313;48.518;9.124;2023-04-24T00:07:01;2.63;;;0.73;;
31734;SDS011;18313;48.518;9.124;2023-04-24T00:09:28;1.35;;;0.60;;
31734;SDS011;18313;48.518;9.124;2023-04-24T00:11:56;1.20;;;0.60;;
31734;SDS011;18313;48.518;9.124;2023-04-24T00:14:23;1.80;;;0.65;;
31734;SDS011;18313;48.518;9.124;2023-04-24T00:16:50;1.92;;;0.70;;
31734;SDS011;18313;48.518;9.124;2023-04-24T00:19:18;1.50;;;0.68;;
31734;SDS011;18313;48.518;9.124;2023-04-24T00:21:47;1.55;;;0.50;;
31734;SDS011;18313;48.518;9.124;2023-04-24T00:24:18;2.08;;;0.70;;
31734;SDS011;18313;48.518;9.124;2023-04-24T00:26:45;1.75;;;0.60;;
31734;SDS011;18313;48.518;9.124;2023-04-24T00:29:12;1.35;;;0.57;;
31734;SDS011;18313;48.518;9.124;2023-04-24T00:31:39;1.77;;;0.60;;
31734;SDS011;18313;48.518;9.124;2023-04-24T00:34:06;2.70;;;0.60;;
31734;SDS011;18313;48.518;9.124;2023-04-24T00:36:34;3.70;;;0.63;;
31734;SDS011;18313;48.518;9.124;2023-04-24T00:39:01;2.17;;;0.70;;
31734;SDS011;18313;48.518;9.124;2023-04-24T00:41:28;2.22;;;0.80;;
31734;SDS011;18313;48.518;9.124;2023-04-24T00:43:56;1.55;;;0.63;;
31734;SDS011;18313;48.518;9.124;2023-04-24T00:46:23;1.92;;;0.60;;
31734;SDS011;18313;48.518;9.124;2023-04-24T00:48:51;1.65;;;0.73;;
31734;SDS011;18313;48.518;9.124;2023-04-24T00:51:18;1.58;;;0.60;;
31734;SDS011;18313;48.518;9.124;2023-04-24T00:53:49;3.03;;;1.00;;
31734;SDS011;18313;48.518;9.124;2023-04-24T00:56:17;2.50;;;0.57;;
31734;SDS011;18313;48.518;9.124;2023-04-24T00:58:45;2.47;;;0.60;;
31734;SDS011;18313;48.518;9.124;2023-04-24T01:01:12;2.13;;;0.52;;
31734;SDS011;18313;48.518;9.124;2023-04-24T01:03:40;2.72;;;0.65;;
31734;SDS011;18313;48.518;9.124;2023-04-24T01:06:08;3.45;;;0.80;;
31734;SDS011;18313;48.518;9.124;2023-04-24T01:08:37;2.20;;;0.75;;
31734;SDS011;18313;48.518;9.124;2023-04-24T01:11:06;3.38;;;0.90;;
31734;SDS011;18313;48.518;9.124;2023-04-24T01:13:33;2.55;;;0.80;;
31734;SDS011;18313;48.518;9.124;2023-04-24T01:16:01;1.92;;;0.70;;
31734;SDS011;18313;48.518;9.124;2023-04-24T01:18:28;2.72;;;0.65;;
31734;SDS011;18313;48.518;9.124;2023-04-24T01:20:58;1.73;;;0.70;;
31734;SDS011;18313;48.518;9.124;2023-04-24T01:23:29;2.70;;;0.90;;
31734;SDS011;18313;48.518;9.124;2023-04-24T01:25:57;2.25;;;0.73;;
31734;SDS011;18313;48.518;9.124;2023-04-24T01:28:24;2.70;;;1.00;;
31734;SDS011;18313;48.518;9.124;2023-04-24T01:30:51;1.60;;;0.73;;
31734;SDS011;18313;48.518;9.124;2023-04-24T01:33:20;2.22;;;0.70;;
31734;SDS011;18313;48.518;9.124;2023-04-24T01:35:49;2.08;;;0.70;;
31734;SDS011;18313;48.518;9.124;2023-04-24T01:38:16;2.05;;;0.70;;
31734;SDS011;18313;48.518;9.124;2023-04-24T01:40:43;1.60;;;0.60;;
31734;SDS011;18313;48.518;9.124;2023-04-24T01:43:11;1.40;;;0.65;;
31734;SDS011;18313;48.518;9.124;2023-04-24T01:45:39;1.13;;;0.60;;
31734;SDS011;18313;48.518;9.124;2023-04-24T01:48:06;1.67;;;0.70;;
31734;SDS011;18313;48.518;9.124;2023-04-24T01:50:33;2.08;;;0.70;;
31734;SDS011;18313;48.518;9.124;2023-04-24T01:53:01;0.95;;;0.60;;
31734;SDS011;18313;48.518;9.124;2023-04-24T01:55:28;1.55;;;0.70;;
31734;SDS011;18313;48.518;9.124;2023-04-24T01:57:56;1.65;;;0.60;;
31734;SDS011;18313;48.518;9.124;2023-04-24T02:00:23;3.67;;;0.70;;
31734;SDS011;18313;48.518;9.124;2023-04-24T02:02:51;2.28;;;0.68;;
31734;SDS011;18313;48.518;9.124;2023-04-24T02:05:18;1.75;;;0.63;;
31734;SDS011;18313;48.518;9.124;2023-04-24T02:07:46;1.55;;;0.65;;
31734;SDS011;18313;48.518;9.124;2023-04-24T02:10:13;1.25;;;0.57;;
31734;SDS011;18313;48.518;9.124;2023-04-24T02:12:40;3.42;;;0.95;;
31734;SDS011;18313;48.518;9.124;2023-04-24T02:15:07;4.90;;;1.00;;
31734;SDS011;18313;48.518;9.124;2023-04-24T02:17:35;2.30;;;1.05;;
31734;SDS011;18313;48.518;9.124;2023-04-24T02:20:03;1.33;;;0.77;;
31734;SDS011;18313;48.518;9.124;2023-04-24T02:22:31;2.08;;;0.80;;
31734;SDS011;18313;48.518;9.124;2023-04-24T02:24:58;3.28;;;0.90;;
31734;SDS011;18313;48.518;9.124;2023-04-24T02:27:25;2.63;;;0.95;;
31734;SDS011;18313;48.518;9.124;2023-04-24T02:29:52;4.88;;;0.90;;
31734;SDS011;18313;48.518;9.124;2023-04-24T02:32:19;3.63;;;0.88;;
31734;SDS011;18313;48.518;9.124;2023-04-24T02:34:46;4.82;;;0.68;;
31734;SDS011;18313;48.518;9.124;2023-04-24T02:37:14;1.95;;;0.80;;
31734;SDS011;18313;48.518;9.124;2023-04-24T02:39:41;1.05;;;0.60;;
31734;SDS011;18313;48.518;9.124;2023-04-24T02:42:09;2.13;;;0.70;;
31734;SDS011;18313;48.518;9.124;2023-04-24T02:44:36;2.72;;;0.60;;
31734;SDS011;18313;48.518;9.124;2023-04-24T02:47:03;1.10;;;0.70;;
31734;SDS011;18313;48.518;9.124;2023-04-24T02:49:31;1.30;;;0.60;;
31734;SDS011;18313;48.518;9.124;2023-04-24T02:51:58;1.88;;;0.73;;
31734;SDS011;18313;48.518;9.124;2023-04-24T02:54:26;2.28;;;0.73;;
31734;SDS011;18313;48.518;9.124;2023-04-24T02:56:53;4.57;;;0.73;;
31734;SDS011;18313;48.518;9.124;2023-04-24T02:59:20;2.22;;;0.60;;
31734;SDS011;18313;48.518;9.124;2023-04-24T03:01:47;2.00;;;0.70;;
31734;SDS011;18313;48.518;9.124;2023-04-24T03:04:15;3.47;;;1.08;;
31734;SDS011;18313;48.518;9.124;2023-04-24T03:06:43;1.48;;;0.75;;
31734;SDS011;18313;48.518;9.124;2023-04-24T03:09:10;5.25;;;0.95;;
31734;SDS011;18313;48.518;9.124;2023-04-24T03:11:37;3.30;;;1.00;;
31734;SDS011;18313;48.518;9.124;2023-04-24T03:14:04;3.97;;;0.82;;
31734;SDS011;18313;48.518;9.124;2023-04-24T03:16:31;3.03;;;1.23;;
31734;SDS011;18313;48.518;9.124;2023-04-24T03:18:59;3.47;;;0.80;;
31734;SDS011;18313;48.518;9.124;2023-04-24T03:21:26;1.70;;;0.70;;
31734;SDS011;18313;48.518;9.124;2023-04-24T03:23:54;3.83;;;1.20;;
31734;SDS011;18313;48.518;9.124;2023-04-24T03:26:21;2.72;;;1.00;;
31734;SDS011;18313;48.518;9.124;2023-04-24T03:28:48;3.53;;;0.80;;
31734;SDS011;18313;48.518;9.124;2023-04-24T03:31:16;2.95;;;0.80;;
31734;SDS011;18313;48.518;9.124;2023-04-24T03:33:43;2.22;;;0.70;;
31734;SDS011;18313;48.518;9.124;2023-04-24T03:36:10;2.90;;;0.70;;
31734;SDS011;18313;48.518;9.124;2023-04-24T03:38:37;4.20;;;0.63;;
31734;SDS011;18313;48.518;9.124;2023-04-24T03:41:04;3.78;;;0.63;;
31734;SDS011;18313;48.518;9.124;2023-04-24T03:43:31;5.65;;;1.08;;
31734;SDS011;18313;48.518;9.124;2023-04-24T03:46:01;1.02;;;0.50;;
31734;SDS011;18313;48.518;9.124;2023-04-24T03:48:28;5.22;;;0.70;;
31734;SDS011;18313;48.518;9.124;2023-04-24T03:50:55;3.28;;;0.70;;
31734;SDS011;18313;48.518;9.124;2023-04-24T03:53:23;4.32;;;0.80;;
31734;SDS011;18313;48.518;9.124;2023-04-24T03:55:50;2.08;;;0.60;;
31734;SDS011;18313;48.518;9.124;2023-04-24T03:58:17;1.92;;;0.60;;
31734;SDS011;18313;48.518;9.124;2023-04-24T04:00:44;2.78;;;0.88;;
31734;SDS011;18313;48.518;9.124;2023-04-24T04:03:14;2.20;;;0.73;;
31734;SDS011;18313;48.518;9.124;2023-04-24T04:05:41;2.30;;;0.73;;
31734;SDS011;18313;48.518;9.124;2023-04-24T04:08:09;0.82;;;0.65;;
31734;SDS011;18313;48.518;9.124;2023-04-24T04:10:36;6.00;;;1.10;;
31734;SDS011;18313;48.518;9.124;2023-04-24T04:13:03;2.60;;;0.80;;
31734;SDS011;18313;48.518;9.124;2023-04-24T04:15:31;1.90;;;0.82;;
31734;SDS011;18313;48.518;9.124;2023-04-24T04:17:58;3.63;;;0.80;;
31734;SDS011;18313;48.518;9.124;2023-04-24T04:20:25;2.33;;;0.80;;
31734;SDS011;18313;48.518;9.124;2023-04-24T04:22:52;3.42;;;0.77;;
31734;SDS011;18313;48.518;9.124;2023-04-24T04:25:20;1.85;;;0.73;;
31734;SDS011;18313;48.518;9.124;2023-04-24T04:27:47;1.45;;;0.80;;
31734;SDS011;18313;48.518;9.124;2023-04-24T04:30:14;3.13;;;0.80;;
31734;SDS011;18313;48.518;9.124;2023-04-24T04:32:42;2.13;;;0.75;;
31734;SDS011;18313;48.518;9.124;2023-04-24T04:35:09;1.88;;;0.80;;
31734;SDS011;18313;48.518;9.124;2023-04-24T04:37:37;1.85;;;0.73;;
31734;SDS011;18313;48.518;9.124;2023-04-24T04:40:04;1.23;;;0.77;;
31734;SDS011;18313;48.518;9.124;2023-04-24T04:42:33;2.53;;;0.82;;
31734;SDS011;18313;48.518;9.124;2023-04-24T04:45:00;4.70;;;1.10;;
31734;SDS011;18313;48.518;9.124;2023-04-24T04:47:28;4.65;;;1.00;;
31734;SDS011;18313;48.518;9.124;2023-04-24T04:49:59;2.78;;;1.00;;
31734;SDS011;18313;48.518;9.124;2023-04-24T04:52:26;1.83;;;0.90;;
31734;SDS011;18313;48.518;9.124;2023-04-24T04:54:53;4.22;;;0.82;;
31734;SDS011;18313;48.518;9.124;2023-04-24T04:57:21;1.23;;;0.70;;
31734;SDS011;18313;48.518;9.124;2023-04-24T04:59:48;1.20;;;0.77;;
31734;SDS011;18313;48.518;9.124;2023-04-24T05:02:15;7.28;;;0.88;;
31734;SDS011;18313;48.518;9.124;2023-04-24T05:04:43;4.85;;;0.95;;
31734;SDS011;18313;48.518;9.124;2023-04-24T05:07:12;3.28;;;0.90;;
31734;SDS011;18313;48.518;9.124;2023-04-24T05:09:40;1.73;;;0.93;;
31734;SDS011;18313;48.518;9.124;2023-04-24T05:12:07;4.00;;;1.00;;
31734;SDS011;18313;48.518;9.124;2023-04-24T05:14:35;2.78;;;0.93;;
31734;SDS011;18313;48.518;9.124;2023-04-24T05:17:02;3.17;;;0.82;;
31734;SDS011;18313;48.518;9.124;2023-04-24T05:19:29;3.28;;;1.13;;
31734;SDS011;18313;48.518;9.124;2023-04-24T05:21:59;2.47;;;1.00;;
31734;SDS011;18313;48.518;9.124;2023-04-24T05:24:29;3.63;;;1.10;;
31734;SDS011;18313;48.518;9.124;2023-04-24T05:26:56;2.75;;;1.17;;
31734;SDS011;18313;48.518;9.124;2023-04-24T05:29:25;1.50;;;1.00;;
31734;SDS011;18313;48.518;9.124;2023-04-24T05:31:57;4.13;;;1.23;;
31734;SDS011;18313;48.518;9.124;2023-04-24T05:34:24;2.17;;;1.10;;
31734;SDS011;18313;48.518;9.124;2023-04-24T05:36:52;2.65;;;1.20;;
31734;SDS011;18313;48.518;9.124;2023-04-24T05:39:19;2.85;;;1.30;;
31734;SDS011;18313;48.518;9.124;2023-04-24T05:41:46;3.42;;;1.33;;
31734;SDS011;18313;48.518;9.124;2023-04-24T05:44:14;4.82;;;1.58;;
31734;SDS011;18313;48.518;9.124;2023-04-24T05:46:41;3.17;;;1.50;;
31734;SDS011;18313;48.518;9.124;2023-04-24T05:49:08;4.63;;;1.30;;
31734;SDS011;18313;48.518;9.124;2023-04-24T05:51:35;5.32;;;1.88;;
31734;SDS011;18313;48.518;9.124;2023-04-24T05:54:02;2.85;;;1.50;;
31734;SDS011;18313;48.518;9.124;2023-04-24T05:56:29;4.10;;;1.52;;
31734;SDS011;18313;48.518;9.124;2023-04-24T05:58:57;4.13;;;1.42;;
31734;SDS011;18313;48.518;9.124;2023-04-24T06:01:24;4.35;;;1.48;;
31734;SDS011;18313;48.518;9.124;2023-04-24T06:03:51;2.22;;;1.38;;
31734;SDS011;18313;48.518;9.124;2023-04-24T06:06:20;3.63;;;1.60;;
31734;SDS011;18313;48.518;9.124;2023-04-24T06:08:47;3.17;;;1.63;;
31734;SDS011;18313;48.518;9.124;2023-04-24T06:11:14;3.33;;;1.70;;
31734;SDS011;18313;48.518;9.124;2023-04-24T06:13:42;3.70;;;1.65;;
31734;SDS011;18313;48.518;9.124;2023-04-24T06:16:09;2.38;;;1.35;;
31734;SDS011;18313;48.518;9.124;2023-04-24T06:18:37;2.72;;;1.30;;
31734;SDS011;18313;48.518;9.124;2023-04-24T06:21:04;3.70;;;1.60;;
31734;SDS011;18313;48.518;9.124;2023-04-24T06:23:31;2.72;;;1.60;;
31734;SDS011;18313;48.518;9.124;2023-04-24T06:25:59;5.95;;;1.92;;
31734;SDS011;18313;48.518;9.124;2023-04-24T06:28:27;4.05;;;2.08;;
31734;SDS011;18313;48.518;9.124;2023-04-24T06:30:54;2.45;;;1.60;;
31734;SDS011;18313;48.518;9.124;2023-04-24T06:33:21;2.63;;;1.50;;
31734;SDS011;18313;48.518;9.124;2023-04-24T06:35:49;3.00;;;1.80;;
31734;SDS011;18313;48.518;9.124;2023-04-24T06:38:16;4.22;;;1.80;;
31734;SDS011;18313;48.518;9.124;2023-04-24T06:40:44;3.08;;;1.75;;
31734;SDS011;18313;48.518;9.124;2023-04-24T06:43:11;2.58;;;1.60;;
31734;SDS011;18313;48.518;9.124;2023-04-24T06:45:38;4.97;;;1.80;;
31734;SDS011;18313;48.518;9.124;2023-04-24T06:48:06;2.90;;;1.60;;
31734;SDS011;18313;48.518;9.124;2023-04-24T06:50:33;3.45;;;1.70;;
31734;SDS011;18313;48.518;9.124;2023-04-24T06:53:00;4.30;;;1.75;;
31734;SDS011;18313;48.518;9.124;2023-04-24T06:55:28;2.75;;;1.70;;
31734;SDS011;18313;48.518;9.124;2023-04-24T06:57:55;2.08;;;1.40;;
31734;SDS011;18313;48.518;9.124;2023-04-24T07:00:22;3.15;;;1.52;;
31734;SDS011;18313;48.518;9.124;2023-04-24T07:02:50;2.03;;;1.40;;
31734;SDS011;18313;48.518;9.124;2023-04-24T07:05:18;3.15;;;1.50;;
31734;SDS011;18313;48.518;9.124;2023-04-24T07:07:47;2.50;;;1.55;;
31734;SDS011;18313;48.518;9.124;2023-04-24T07:10:15;3.63;;;1.50;;
31734;SDS011;18313;48.518;9.124;2023-04-24T07:12:42;4.32;;;1.60;;
31734;SDS011;18313;48.518;9.124;2023-04-24T07:15:09;3.00;;;1.25;;
31734;SDS011;18313;48.518;9.124;2023-04-24T07:17:37;3.97;;;1.40;;
31734;SDS011;18313;48.518;9.124;2023-04-24T07:20:05;2.75;;;1.50;;
31734;SDS011;18313;48.518;9.124;2023-04-24T07:22:35;2.67;;;1.48;;
31734;SDS011;18313;48.518;9.124;2023-04-24T07:25:04;1.95;;;1.30;;
31734;SDS011;18313;48.518;9.124;2023-04-24T07:27:31;4.00;;;1.40;;
31734;SDS011;18313;48.518;9.124;2023-04-24T07:29:58;2.17;;;1.20;;
31734;SDS011;18313;48.518;9.124;2023-04-24T07:32:26;2.40;;;1.25;;
31734;SDS011;18313;48.518;9.124;2023-04-24T07:34:53;2.63;;;1.40;;
31734;SDS011;18313;48.518;9.124;2023-04-24T07:37:20;2.60;;;1.20;;
31734;SDS011;18313;48.518;9.124;2023-04-24T07:39:48;2.28;;;1.13;;
31734;SDS011;18313;48.518;9.124;2023-04-24T07:42:15;2.88;;;1.08;;
31734;SDS011;18313;48.518;9.124;2023-04-24T07:44:42;2.20;;;1.10;;
31734;SDS011;18313;48.518;9.124;2023-04-24T07:47:09;4.20;;;1.20;;
31734;SDS011;18313;48.518;9.124;2023-04-24T07:49:37;3.67;;;1.00;;
31734;SDS011;18313;48.518;9.124;2023-04-24T07:52:04;2.85;;;1.40;;
31734;SDS011;18313;48.518;9.124;2023-04-24T07:54:32;2.80;;;1.20;;
31734;SDS011;18313;48.518;9.124;2023-04-24T07:56:59;2.47;;;1.15;;
31734;SDS011;18313;48.518;9.124;2023-04-24T07:59:27;2.22;;;1.15;;
31734;SDS011;18313;48.518;9.124;2023-04-24T08:01:54;2.10;;;1.10;;
31734;SDS011;18313;48.518;9.124;2023-04-24T08:04:22;2.30;;;1.17;;
31734;SDS011;18313;48.518;9.124;2023-04-24T08:06:49;1.90;;;1.05;;
31734;SDS011;18313;48.518;9.124;2023-04-24T08:09:16;2.78;;;1.15;;
31734;SDS011;18313;48.518;9.124;2023-04-24T08:11:44;2.08;;;1.23;;
31734;SDS011;18313;48.518;9.124;2023-04-24T08:14:11;2.03;;;1.10;;
31734;SDS011;18313;48.518;9.124;2023-04-24T08:16:39;2.38;;;1.20;;
31734;SDS011;18313;48.518;9.124;2023-04-24T08:19:07;3.13;;;1.40;;
31734;SDS011;18313;48.518;9.124;2023-04-24T08:21:34;3.08;;;1.40;;
31734;SDS011;18313;48.518;9.124;2023-04-24T08:24:01;1.85;;;1.20;;
31734;SDS011;18313;48.518;9.124;2023-04-24T08:26:31;2.97;;;1.20;;
31734;SDS011;18313;48.518;9.124;2023-04-24T08:28:58;3.47;;;1.20;;
31734;SDS011;18313;48.518;9.124;2023-04-24T08:31:26;2.70;;;1.08;;
31734;SDS011;18313;48.518;9.124;2023-04-24T08:33:53;5.40;;;1.23;;
31734;SDS011;18313;48.518;9.124;2023-04-24T08:36:20;2.78;;;1.20;;
31734;SDS011;18313;48.518;9.124;2023-04-24T08:38:58;3.92;;;1.20;;
31734;SDS011;18313;48.518;9.124;2023-04-24T08:41:26;3.10;;;1.27;;
31734;SDS011;18313;48.518;9.124;2023-04-24T08:43:54;2.72;;;1.30;;
31734;SDS011;18313;48.518;9.124;2023-04-24T08:46:24;1.95;;;1.02;;
31734;SDS011;18313;48.518;9.124;2023-04-24T08:48:52;3.45;;;1.25;;
31734;SDS011;18313;48.518;9.124;2023-04-24T08:51:19;3.28;;;1.30;;
31734;SDS011;18313;48.518;9.124;2023-04-24T08:53:47;5.18;;;1.33;;
31734;SDS011;18313;48.518;9.124;2023-04-24T08:56:15;3.00;;;1.30;;
31734;SDS011;18313;48.518;9.124;2023-04-24T08:58:43;2.78;;;1.20;;
31734;SDS011;18313;48.518;9.124;2023-04-24T09:01:11;2.85;;;1.13;;
31734;SDS011;18313;48.518;9.124;2023-04-24T09:03:39;2.67;;;1.25;;
31734;SDS011;18313;48.518;9.124;2023-04-24T09:06:08;3.33;;;1.20;;
31734;SDS011;18313;48.518;9.124;2023-04-24T09:08:37;2.75;;;1.10;;
31734;SDS011;18313;48.518;9.124;2023-04-24T09:11:07;2.47;;;1.17;;
31734;SDS011;18313;48.518;9.124;2023-04-24T09:13:35;3.33;;;1.13;;
31734;SDS011;18313;48.518;9.124;2023-04-24T09:16:03;3.65;;;1.27;;
31734;SDS011;18313;48.518;9.124;2023-04-24T09:18:31;3.70;;;1.20;;
31734;SDS011;18313;48.518;9.124;2023-04-24T09:21:02;3.47;;;1.25;;
31734;SDS011;18313;48.518;9.124;2023-04-24T09:23:33;3.33;;;1.00;;
31734;SDS011;18313;48.518;9.124;2023-04-24T09:26:01;2.92;;;1.10;;
31734;SDS011;18313;48.518;9.124;2023-04-24T09:28:32;4.95;;;1.38;;
31734;SDS011;18313;48.518;9.124;2023-04-24T09:31:11;2.85;;;1.17;;
31734;SDS011;18313;48.518;9.124;2023-04-24T09:36:36;1.98;;;0.88;;
31734;SDS011;18313;48.518;9.124;2023-04-24T09:39:08;2.83;;;1.33;;
31734;SDS011;18313;48.518;9.124;2023-04-24T09:44:14;2.53;;;1.10;;
31734;SDS011;18313;48.518;9.124;2023-04-24T09:46:44;3.63;;;1.10;;
31734;SDS011;18313;48.518;9.124;2023-04-24T09:49:16;2.80;;;1.23;;
31734;SDS011;18313;48.518;9.124;2023-04-24T09:51:48;4.68;;;1.65;;
31734;SDS011;18313;48.518;9.124;2023-04-24T09:54:18;4.38;;;1.30;;
31734;SDS011;18313;48.518;9.124;2023-04-24T09:56:51;2.47;;;1.10;;
31734;SDS011;18313;48.518;9.124;2023-04-24T09:59:18;3.85;;;1.13;;
31734;SDS011;18313;48.518;9.124;2023-04-24T10:01:46;4.07;;;1.35;;
31734;SDS011;18313;48.518;9.124;2023-04-24T10:04:16;3.70;;;1.23;;
31734;SDS011;18313;48.518;9.124;2023-04-24T10:06:45;4.28;;;1.00;;
31734;SDS011;18313;48.518;9.124;2023-04-24T10:09:19;3.22;;;1.48;;
31734;SDS011;18313;48.518;9.124;2023-04-24T10:11:49;2.58;;;1.17;;
31734;SDS011;18313;48.518;9.124;2023-04-24T10:14:19;4.82;;;1.38;;
31734;SDS011;18313;48.518;9.124;2023-04-24T10:16:47;2.28;;;1.13;;
31734;SDS011;18313;48.518;9.124;2023-04-24T10:19:15;4.38;;;1.30;;
31734;SDS011;18313;48.518;9.124;2023-04-24T10:21:45;1.80;;;1.00;;
31734;SDS011;18313;48.518;9.124;2023-04-24T10:24:14;2.97;;;0.80;;
31734;SDS011;18313;48.518;9.124;2023-04-24T10:26:43;4.60;;;1.00;;
31734;SDS011;18313;48.518;9.124;2023-04-24T10:29:11;2.42;;;1.00;;
31734;SDS011;18313;48.518;9.124;2023-04-24T10:31:39;2.70;;;0.90;;
31734;SDS011;18313;48.518;9.124;2023-04-24T10:34:07;1.17;;;0.70;;
31734;SDS011;18313;48.518;9.124;2023-04-24T10:36:36;1.73;;;0.80;;
31734;SDS011;18313;48.518;9.124;2023-04-24T10:39:08;2.97;;;1.00;;
31734;SDS011;18313;48.518;9.124;2023-04-24T10:41:38;2.60;;;0.90;;
31734;SDS011;18313;48.518;9.124;2023-04-24T10:46:36;2.85;;;0.90;;
31734;SDS011;18313;48.518;9.124;2023-04-24T10:49:05;2.13;;;0.75;;
31734;SDS011;18313;48.518;9.124;2023-04-24T10:51:51;1.88;;;0.80;;
31734;SDS011;18313;48.518;9.124;2023-04-24T10:56:50;1.58;;;0.77;;
31734;SDS011;18313;48.518;9.124;2023-04-24T10:59:24;2.10;;;0.80;;
31734;SDS011;18313;48.518;9.124;2023-04-24T11:01:53;2.17;;;1.00;;
31734;SDS011;18313;48.518;9.124;2023-04-24T11:04:33;1.88;;;1.10;;
31734;SDS011;18313;48.518;9.124;2023-04-24T11:07:02;2.83;;;1.20;;
31734;SDS011;18313;48.518;9.124;2023-04-24T11:09:30;1.50;;;0.85;;
31734;SDS011;18313;48.518;9.124;2023-04-24T11:12:07;1.85;;;0.90;;
31734;SDS011;18313;48.518;9.124;2023-04-24T11:14:59;2.55;;;1.00;;
31734;SDS011;18313;48.518;9.124;2023-04-24T11:17:32;2.80;;;1.00;;
31734;SDS011;18313;48.518;9.124;2023-04-24T11:20:08;1.48;;;0.93;;
31734;SDS011;18313;48.518;9.124;2023-04-24T11:22:54;2.03;;;1.10;;
31734;SDS011;18313;48.518;9.124;2023-04-24T11:25:22;1.70;;;0.90;;
31734;SDS011;18313;48.518;9.124;2023-04-24T11:27:49;2.13;;;0.85;;
31734;SDS011;18313;48.518;9.124;2023-04-24T11:30:17;1.92;;;0.95;;
31734;SDS011;18313;48.518;9.124;2023-04-24T11:32:47;1.48;;;0.90;;
31734;SDS011;18313;48.518;9.124;2023-04-24T11:35:20;2.38;;;1.20;;
31734;SDS011;18313;48.518;9.124;2023-04-24T11:37:52;3.15;;;1.50;;
31734;SDS011;18313;48.518;9.124;2023-04-24T11:40:23;1.67;;;0.70;;
31734;SDS011;18313;48.518;9.124;2023-04-24T11:42:52;1.67;;;0.85;;
31734;SDS011;18313;48.518;9.124;2023-04-24T11:45:22;2.70;;;0.73;;
31734;SDS011;18313;48.518;9.124;2023-04-24T11:47:51;1.92;;;0.80;;
31734;SDS011;18313;48.518;9.124;2023-04-24T11:50:20;1.05;;;0.60;;
31734;SDS011;18313;48.518;9.124;2023-04-24T11:52:49;1.42;;;0.70;;
31734;SDS011;18313;48.518;9.124;2023-04-24T11:57:46;1.45;;;0.60;;
31734;SDS011;18313;48.518;9.124;2023-04-24T12:00:24;2.78;;;0.80;;
31734;SDS011;18313;48.518;9.124;2023-04-24T12:03:04;0.65;;;0.50;;
31734;SDS011;18313;48.518;9.124;2023-04-24T12:05:37;1.48;;;0.80;;
31734;SDS011;18313;48.518;9.124;2023-04-24T12:08:05;1.33;;;0.73;;
31734;SDS011;18313;48.518;9.124;2023-04-24T12:10:33;2.83;;;0.80;;
31734;SDS011;18313;48.518;9.124;2023-04-24T12:13:01;1.95;;;0.70;;
31734;SDS011;18313;48.518;9.124;2023-04-24T12:15:29;2.53;;;0.90;;
31734;SDS011;18313;48.518;9.124;2023-04-24T12:17:56;3.08;;;0.80;;
31734;SDS011;18313;48.518;9.124;2023-04-24T12:20:27;2.38;;;0.73;;
31734;SDS011;18313;48.518;9.124;2023-04-24T12:22:57;3.65;;;0.70;;
31734;SDS011;18313;48.518;9.124;2023-04-24T12:25:26;2.63;;;0.80;;
31734;SDS011;18313;48.518;9.124;2023-04-24T12:30:33;3.03;;;0.80;;
31734;SDS011;18313;48.518;9.124;2023-04-24T12:33:01;1.23;;;0.80;;
31734;SDS011;18313;48.518;9.124;2023-04-24T12:35:31;2.03;;;0.70;;
31734;SDS011;18313;48.518;9.124;2023-04-24T12:38:13;1.23;;;0.70;;
31734;SDS011;18313;48.518;9.124;2023-04-24T12:40:41;1.02;;;0.60;;
31734;SDS011;18313;48.518;9.124;2023-04-24T12:43:16;1.75;;;0.88;;
31734;SDS011;18313;48.518;9.124;2023-04-24T12:45:46;2.42;;;0.80;;
31734;SDS011;18313;48.518;9.124;2023-04-24T12:48:14;1.77;;;1.00;;
31734;SDS011;18313;48.518;9.124;2023-04-24T12:50:42;4.18;;;1.02;;
31734;SDS011;18313;48.518;9.124;2023-04-24T12:53:12;3.83;;;1.10;;
31734;SDS011;18313;48.518;9.124;2023-04-24T12:55:40;2.63;;;1.25;;
31734;SDS011;18313;48.518;9.124;2023-04-24T12:58:08;2.45;;;0.98;;
31734;SDS011;18313;48.518;9.124;2023-04-24T13:00:35;1.80;;;1.00;;
31734;SDS011;18313;48.518;9.124;2023-04-24T13:03:02;2.67;;;1.05;;
31734;SDS011;18313;48.518;9.124;2023-04-24T13:05:30;2.55;;;1.08;;
31734;SDS011;18313;48.518;9.124;2023-04-24T13:07:57;1.35;;;0.90;;
31734;SDS011;18313;48.518;9.124;2023-04-24T13:10:24;3.70;;;0.98;;
31734;SDS011;18313;48.518;9.124;2023-04-24T13:12:52;2.72;;;1.35;;
31734;SDS011;18313;48.518;9.124;2023-04-24T13:15:19;2.08;;;1.00;;
31734;SDS011;18313;48.518;9.124;2023-04-24T13:17:46;1.92;;;0.90;;
31734;SDS011;18313;48.518;9.124;2023-04-24T13:20:13;2.17;;;0.98;;
31734;SDS011;18313;48.518;9.124;2023-04-24T13:22:40;2.13;;;1.00;;
31734;SDS011;18313;48.518;9.124;2023-04-24T13:25:08;1.48;;;0.77;;
31734;SDS011;18313;48.518;9.124;2023-04-24T13:27:37;2.13;;;0.98;;
31734;SDS011;18313;48.518;9.124;2023-04-24T13:30:05;3.80;;;1.20;;
31734;SDS011;18313;48.518;9.124;2023-04-24T13:32:33;1.40;;;0.90;;
31734;SDS011;18313;48.518;9.124;2023-04-24T13:35:02;1.33;;;0.93;;
31734;SDS011;18313;48.518;9.124;2023-04-24T13:37:29;1.70;;;1.00;;
31734;SDS011;18313;48.518;9.124;2023-04-24T13:39:56;2.28;;;1.20;;
31734;SDS011;18313;48.518;9.124;2023-04-24T13:42:23;1.85;;;1.00;;
31734;SDS011;18313;48.518;9.124;2023-04-24T13:44:50;3.33;;;1.10;;
31734;SDS011;18313;48.518;9.124;2023-04-24T13:47:18;2.47;;;0.95;;
31734;SDS011;18313;48.518;9.124;2023-04-24T13:49:45;4.07;;;2.00;;
31734;SDS011;18313;48.518;9.124;2023-04-24T13:52:12;2.90;;;1.02;;
31734;SDS011;18313;48.518;9.124;2023-04-24T13:54:40;2.38;;;1.00;;
31734;SDS011;18313;48.518;9.124;2023-04-24T13:57:07;2.53;;;1.10;;
31734;SDS011;18313;48.518;9.124;2023-04-24T13:59:34;1.60;;;1.00;;
31734;SDS011;18313;48.518;9.124;2023-04-24T14:02:03;2.88;;;1.00;;
31734;SDS011;18313;48.518;9.124;2023-04-24T14:04:31;2.75;;;1.15;;
31734;SDS011;18313;48.518;9.124;2023-04-24T14:06:59;2.50;;;1.10;;
31734;SDS011;18313;48.518;9.124;2023-04-24T14:09:26;1.83;;;1.10;;
31734;SDS011;18313;48.518;9.124;2023-04-24T14:11:53;1.80;;;1.10;;
31734;SDS011;18313;48.518;9.124;2023-04-24T14:14:20;1.92;;;1.10;;
31734;SDS011;18313;48.518;9.124;2023-04-24T14:16:48;3.15;;;1.10;;
31734;SDS011;18313;48.518;9.124;2023-04-24T14:19:15;13.25;;;2.05;;
31734;SDS011;18313;48.518;9.124;2023-04-24T14:21:42;2.13;;;1.00;;
31734;SDS011;18313;48.518;9.124;2023-04-24T14:24:10;2.28;;;1.10;;
31734;SDS011;18313;48.518;9.124;2023-04-24T14:26:37;2.80;;;1.10;;
31734;SDS011;18313;48.518;9.124;2023-04-24T14:29:04;2.60;;;1.08;;
31734;SDS011;18313;48.518;9.124;2023-04-24T14:31:41;1.27;;;0.90;;
31734;SDS011;18313;48.518;9.124;2023-04-24T14:34:09;2.70;;;1.15;;
31734;SDS011;18313;48.518;9.124;2023-04-24T14:36:36;3.35;;;1.10;;
31734;SDS011;18313;48.518;9.124;2023-04-24T14:39:04;3.42;;;1.27;;
31734;SDS011;18313;48.518;9.124;2023-04-24T14:41:33;2.58;;;1.23;;
31734;SDS011;18313;48.518;9.124;2023-04-24T14:44:02;3.67;;;1.30;;
31734;SDS011;18313;48.518;9.124;2023-04-24T14:46:30;3.20;;;1.08;;
31734;SDS011;18313;48.518;9.124;2023-04-24T14:48:58;2.58;;;1.30;;
31734;SDS011;18313;48.518;9.124;2023-04-24T14:51:25;3.45;;;1.30;;
31734;SDS011;18313;48.518;9.124;2023-04-24T14:53:53;2.88;;;1.27;;
31734;SDS011;18313;48.518;9.124;2023-04-24T14:56:20;2.40;;;1.27;;
31734;SDS011;18313;48.518;9.124;2023-04-24T14:58:48;2.47;;;1.30;;
31734;SDS011;18313;48.518;9.124;2023-04-24T15:01:15;3.42;;;1.30;;
31734;SDS011;18313;48.518;9.124;2023-04-24T15:03:43;2.25;;;1.02;;
31734;SDS011;18313;48.518;9.124;2023-04-24T15:06:11;2.22;;;1.00;;
31734;SDS011;18313;48.518;9.124;2023-04-24T15:08:39;2.33;;;1.15;;
31734;SDS011;18313;48.518;9.124;2023-04-24T15:11:06;3.50;;;1.00;;